Time;durP1;ratioP1;P1;durP2;ratioP2;P2;SDS_P1;SDS_P2;PMS_P1;PMS_P2;Temp;Humidity;BMP_temperature;BMP_pressure;BME280_temperature;BME280_humidity;BME280_pressure;Samples;Min_cycle;Max_cycle;Signal;HPM_P1;HPM_P2
2021/07/10 00:00:27;;;;;;;0.40;0.40;;;16.50;99.90;;;;;;4954194;29;20245;-76
2021/07/10 00:02:54;;;;;;;0.40;0.40;;;16.50;99.90;;;;;;4954121;29;20225;-76
2021/07/10 00:05:22;;;;;;;0.50;0.50;;;16.50;99.90;;;;;;4954547;29;20205;-76
2021/07/10 00:07:50;;;;;;;0.47;0.47;;;16.40;99.90;;;;;;4953555;29;20354;-77
2021/07/10 00:10:18;;;;;;;0.30;0.30;;;16.40;99.90;;;;;;4954048;29;20264;-77
2021/07/10 00:12:48;;;;;;;0.40;0.40;;;16.40;99.90;;;;;;4953839;29;20233;-77
2021/07/10 00:15:18;;;;;;;0.50;0.50;;;16.30;99.90;;;;;;4953734;29;20209;-77
2021/07/10 00:17:46;;;;;;;0.50;0.50;;;16.30;99.90;;;;;;4953898;29;20205;-76
2021/07/10 00:20:14;;;;;;;0.40;0.40;;;16.30;99.90;;;;;;4953743;29;20633;-76
2021/07/10 00:22:42;;;;;;;0.45;0.45;;;16.30;99.90;;;;;;4953483;29;20225;-77
2021/07/10 00:25:12;;;;;;;0.30;0.30;;;16.40;99.90;;;;;;4953360;29;20210;-77
2021/07/10 00:27:41;;;;;;;0.40;0.40;;;16.40;99.90;;;;;;4954332;29;20252;-76
2021/07/10 00:30:12;;;;;;;0.50;0.50;;;16.40;99.90;;;;;;4955246;29;20213;-76
2021/07/10 00:32:40;;;;;;;0.50;0.50;;;16.40;99.90;;;;;;4954217;29;20229;-76
2021/07/10 00:35:09;;;;;;;0.47;0.47;;;16.40;99.90;;;;;;4955886;29;20578;-76
2021/07/10 00:37:37;;;;;;;0.50;0.50;;;16.40;99.90;;;;;;4954837;29;20679;-76
2021/07/10 00:40:06;;;;;;;0.40;0.40;;;16.40;99.90;;;;;;4953054;28;20666;-77
2021/07/10 00:42:35;;;;;;;0.40;0.40;;;16.50;99.90;;;;;;4952929;29;20781;-77
2021/07/10 00:45:04;;;;;;;0.40;0.40;;;16.50;99.90;;;;;;4953410;29;20714;-77
2021/07/10 00:47:34;;;;;;;0.40;0.40;;;16.50;99.90;;;;;;4953169;29;20233;-76
2021/07/10 00:50:02;;;;;;;0.40;0.40;;;16.50;99.90;;;;;;4953613;29;20205;-76
2021/07/10 00:52:30;;;;;;;0.50;0.50;;;16.50;99.90;;;;;;4952791;29;20252;-77
2021/07/10 00:54:57;;;;;;;0.40;0.40;;;16.60;99.90;;;;;;4952951;29;20631;-76
2021/07/10 00:57:25;;;;;;;0.50;0.50;;;16.70;99.90;;;;;;4953142;29;20624;-76
2021/07/10 00:59:53;;;;;;;0.40;0.40;;;16.60;99.90;;;;;;4953260;29;20428;-76
2021/07/10 01:02:21;;;;;;;0.40;0.40;;;16.70;99.90;;;;;;4953628;29;20226;-76
2021/07/10 01:04:50;;;;;;;0.40;0.40;;;16.80;99.90;;;;;;4953085;29;20225;-76
2021/07/10 01:07:18;;;;;;;0.40;0.40;;;16.80;99.90;;;;;;4953034;29;20205;-76
2021/07/10 01:09:46;;;;;;;0.40;0.40;;;16.90;99.90;;;;;;4953046;29;20244;-76
2021/07/10 01:12:14;;;;;;;0.43;0.43;;;16.90;99.90;;;;;;4953099;29;20584;-76
2021/07/10 01:14:42;;;;;;;0.40;0.40;;;16.90;99.90;;;;;;4953032;29;20284;-76
2021/07/10 01:17:10;;;;;;;0.50;0.50;;;17.10;99.90;;;;;;4953088;29;20240;-76
2021/07/10 01:19:38;;;;;;;0.30;0.30;;;17.10;99.90;;;;;;4953324;29;20201;-76
2021/07/10 01:22:09;;;;;;;0.40;0.40;;;17.10;99.90;;;;;;4952850;29;20225;-76
2021/07/10 01:24:38;;;;;;;0.47;0.47;;;17.20;99.90;;;;;;4953088;29;20276;-76
2021/07/10 01:27:06;;;;;;;0.30;0.30;;;17.20;99.90;;;;;;4952569;29;20209;-76
2021/07/10 01:29:36;;;;;;;0.40;0.40;;;17.20;99.90;;;;;;4953202;29;20272;-76
2021/07/10 01:32:05;;;;;;;0.32;0.32;;;17.50;99.90;;;;;;4953129;29;20210;-76
2021/07/10 01:34:34;;;;;;;0.30;0.30;;;17.30;99.90;;;;;;4953164;29;20206;-76
2021/07/10 01:37:02;;;;;;;0.40;0.40;;;17.30;99.90;;;;;;4952434;29;20239;-76
2021/07/10 01:39:31;;;;;;;0.30;0.30;;;17.30;99.90;;;;;;4952481;29;20688;-76
2021/07/10 01:41:59;;;;;;;0.40;0.40;;;17.50;99.90;;;;;;4953232;29;20229;-76
2021/07/10 01:44:27;;;;;;;0.30;0.30;;;17.30;99.90;;;;;;4953042;29;20225;-76
2021/07/10 01:46:55;;;;;;;0.30;0.30;;;17.20;99.90;;;;;;4952705;29;20201;-76
2021/07/10 01:49:22;;;;;;;0.32;0.32;;;17.30;99.90;;;;;;4952948;29;20264;-76
2021/07/10 01:51:50;;;;;;;0.40;0.40;;;16.90;99.90;;;;;;4954978;28;20264;-76
2021/07/10 01:54:18;;;;;;;0.30;0.30;;;17.20;99.90;;;;;;4956459;29;20201;-76
2021/07/10 01:56:47;;;;;;;0.40;0.40;;;17.20;99.90;;;;;;4956547;29;20253;-76
2021/07/10 01:59:15;;;;;;;0.40;0.40;;;17.20;99.90;;;;;;4957387;29;20355;-76
2021/07/10 02:01:46;;;;;;;0.40;0.40;;;17.10;99.90;;;;;;4957192;29;20741;-76
2021/07/10 02:04:15;;;;;;;0.40;0.40;;;17.10;99.90;;;;;;4956969;29;20221;-76
2021/07/10 02:06:43;;;;;;;0.40;0.40;;;17.00;99.90;;;;;;4956736;29;20205;-76
2021/07/10 02:09:11;;;;;;;0.40;0.40;;;17.00;99.90;;;;;;4956916;29;20585;-76
2021/07/10 02:11:44;;;;;;;0.40;0.40;;;17.00;99.90;;;;;;4956879;29;20633;-76
2021/07/10 02:14:14;;;;;;;0.40;0.40;;;17.00;99.90;;;;;;4956849;29;20244;-76
2021/07/10 02:16:42;;;;;;;0.40;0.40;;;17.00;99.90;;;;;;4956574;29;20667;-76
2021/07/10 02:19:10;;;;;;;0.40;0.40;;;17.10;99.90;;;;;;4956722;29;20206;-76
2021/07/10 02:21:39;;;;;;;0.40;0.40;;;17.00;99.90;;;;;;4956886;29;20205;-76
2021/07/10 02:24:07;;;;;;;0.40;0.40;;;17.10;99.90;;;;;;4956484;29;20745;-76
2021/07/10 02:26:36;;;;;;;0.40;0.40;;;17.20;99.90;;;;;;4956578;29;20241;-76
2021/07/10 02:29:06;;;;;;;0.40;0.40;;;17.20;99.90;;;;;;4956712;29;20200;-76
2021/07/10 02:31:36;;;;;;;0.30;0.30;;;17.20;99.90;;;;;;4956607;29;20209;-76
2021/07/10 02:34:05;;;;;;;0.47;0.47;;;17.20;99.90;;;;;;4956567;29;20777;-76
2021/07/10 02:36:33;;;;;;;0.40;0.40;;;17.30;99.90;;;;;;4956212;29;20205;-76
2021/07/10 02:39:01;;;;;;;0.40;0.40;;;17.30;99.90;;;;;;4956248;29;20205;-76
2021/07/10 02:41:28;;;;;;;0.40;0.40;;;17.30;99.90;;;;;;4956300;29;20205;-76
2021/07/10 02:43:56;;;;;;;0.30;0.30;;;17.40;99.90;;;;;;4956196;29;20277;-76
2021/07/10 02:46:24;;;;;;;0.40;0.40;;;17.40;99.90;;;;;;4956273;29;20246;-76
2021/07/10 02:48:53;;;;;;;0.30;0.30;;;17.40;99.90;;;;;;4956339;29;20209;-76
2021/07/10 02:51:21;;;;;;;0.50;0.50;;;17.40;99.90;;;;;;4956358;29;20206;-76
2021/07/10 02:53:50;;;;;;;0.30;0.30;;;17.40;99.90;;;;;;4956086;29;20229;-76
2021/07/10 02:56:18;;;;;;;0.30;0.30;;;17.50;99.90;;;;;;4955870;29;20236;-75
2021/07/10 02:58:46;;;;;;;0.30;0.30;;;17.50;99.90;;;;;;4955825;29;20736;-76
2021/07/10 03:01:14;;;;;;;0.40;0.40;;;17.70;99.90;;;;;;4956189;28;20206;-75
2021/07/10 03:03:42;;;;;;;0.30;0.30;;;17.60;99.90;;;;;;4956252;29;20231;-75
2021/07/10 03:06:11;;;;;;;0.40;0.40;;;17.70;99.90;;;;;;4955892;29;20272;-75
2021/07/10 03:08:39;;;;;;;0.40;0.40;;;17.60;99.90;;;;;;4956723;29;20674;-75
2021/07/10 03:11:08;;;;;;;0.30;0.30;;;17.60;99.90;;;;;;4956181;29;20209;-76
2021/07/10 03:13:36;;;;;;;0.40;0.40;;;17.60;99.90;;;;;;4955570;29;20229;-77
2021/07/10 03:16:05;;;;;;;0.32;0.32;;;17.70;99.90;;;;;;4955550;29;20690;-76
2021/07/10 03:18:33;;;;;;;0.30;0.30;;;17.60;99.90;;;;;;4955646;29;20212;-76
2021/07/10 03:21:01;;;;;;;0.40;0.40;;;17.60;99.90;;;;;;4955638;29;20266;-76
2021/07/10 03:23:31;;;;;;;0.40;0.40;;;17.60;99.90;;;;;;4955536;29;20233;-76
2021/07/10 03:25:59;;;;;;;0.50;0.50;;;17.60;99.90;;;;;;4955263;29;20280;-77
2021/07/10 03:28:27;;;;;;;0.50;0.50;;;17.70;99.90;;;;;;4955434;29;20745;-76
2021/07/10 03:30:55;;;;;;;0.30;0.30;;;17.50;99.90;;;;;;4955610;29;20201;-77
2021/07/10 03:33:23;;;;;;;0.30;0.30;;;17.50;99.90;;;;;;4955285;29;20308;-76
2021/07/10 03:35:51;;;;;;;0.50;0.50;;;17.50;99.90;;;;;;4955259;29;20260;-77
2021/07/10 03:38:19;;;;;;;0.40;0.40;;;17.50;99.90;;;;;;4955278;29;20216;-77
2021/07/10 03:40:48;;;;;;;0.40;0.40;;;17.50;99.90;;;;;;4955566;29;20623;-76
2021/07/10 03:43:16;;;;;;;0.40;0.40;;;17.50;99.90;;;;;;4955342;29;20225;-77
2021/07/10 03:45:44;;;;;;;0.40;0.40;;;17.30;99.90;;;;;;4954956;29;20229;-77
2021/07/10 03:48:12;;;;;;;0.40;0.40;;;17.20;99.90;;;;;;4955161;29;20212;-77
2021/07/10 03:50:39;;;;;;;0.40;0.40;;;17.30;99.90;;;;;;4955120;29;20205;-77
2021/07/10 03:53:07;;;;;;;0.40;0.40;;;17.30;99.90;;;;;;4954985;29;20243;-77
2021/07/10 03:55:35;;;;;;;0.40;0.40;;;17.30;99.90;;;;;;4954742;29;20580;-77
2021/07/10 03:58:04;;;;;;;0.30;0.30;;;17.30;99.90;;;;;;4954156;28;20268;-77
2021/07/10 04:00:33;;;;;;;0.40;0.40;;;17.40;99.90;;;;;;4968438;28;20197;-77
2021/07/10 04:03:00;;;;;;;0.40;0.40;;;17.50;99.90;;;;;;4956039;28;20730;-78
2021/07/10 04:05:28;;;;;;;0.35;0.35;;;17.40;99.90;;;;;;4954716;29;20218;-77
2021/07/10 04:07:56;;;;;;;0.40;0.40;;;17.50;99.90;;;;;;4954746;29;20205;-76
2021/07/10 04:10:24;;;;;;;0.40;0.40;;;17.50;99.90;;;;;;4954618;29;20205;-76
2021/07/10 04:12:52;;;;;;;0.40;0.40;;;17.50;99.90;;;;;;4967893;23;20284;-74
2021/07/10 04:15:22;;;;;;;0.40;0.40;;;17.50;99.90;;;;;;4965064;28;20248;-75
2021/07/10 04:17:50;;;;;;;0.40;0.40;;;17.50;99.90;;;;;;4973440;28;20205;-75
2021/07/10 04:20:19;;;;;;;0.40;0.40;;;17.50;99.90;;;;;;4973684;28;20208;-75
2021/07/10 04:22:48;;;;;;;0.50;0.50;;;17.60;99.90;;;;;;4973427;28;20724;-74
2021/07/10 04:25:17;;;;;;;0.40;0.40;;;17.60;99.90;;;;;;4973408;28;20224;-74
2021/07/10 04:27:46;;;;;;;0.40;0.40;;;17.60;99.90;;;;;;4973567;28;20212;-75
2021/07/10 04:30:16;;;;;;;0.32;0.32;;;17.60;99.90;;;;;;4973639;28;20212;-75
2021/07/10 04:32:45;;;;;;;0.50;0.50;;;17.70;99.90;;;;;;4973425;28;20311;-75
2021/07/10 04:35:14;;;;;;;0.40;0.40;;;17.70;99.90;;;;;;4973173;28;20215;-75
2021/07/10 04:37:42;;;;;;;0.40;0.40;;;17.70;99.90;;;;;;4973401;28;20205;-75
2021/07/10 04:40:11;;;;;;;0.30;0.30;;;17.70;99.90;;;;;;4973394;28;20205;-75
2021/07/10 04:42:40;;;;;;;0.40;0.40;;;17.80;99.90;;;;;;4973184;28;20612;-75
2021/07/10 04:45:09;;;;;;;0.40;0.40;;;17.80;99.90;;;;;;4973189;28;20204;-76
2021/07/10 04:47:37;;;;;;;0.40;0.40;;;17.90;99.90;;;;;;4973038;28;20737;-75
2021/07/10 04:50:07;;;;;;;0.30;0.30;;;17.90;99.90;;;;;;4973120;28;20205;-76
2021/07/10 04:52:35;;;;;;;0.30;0.30;;;18.20;99.90;;;;;;4973007;28;20674;-75
2021/07/10 04:55:05;;;;;;;0.40;0.40;;;18.20;99.90;;;;;;4973038;28;20208;-74
2021/07/10 04:57:33;;;;;;;0.30;0.30;;;18.20;99.90;;;;;;4972813;28;20670;-75
2021/07/10 05:00:00;;;;;;;0.40;0.40;;;18.30;99.90;;;;;;4973221;28;20212;-76
2021/07/10 05:02:28;;;;;;;0.40;0.40;;;18.20;99.90;;;;;;4973085;28;20205;-75
2021/07/10 05:04:56;;;;;;;0.40;0.40;;;18.20;99.90;;;;;;4972986;28;20208;-75
2021/07/10 05:07:26;;;;;;;0.40;0.40;;;18.20;99.90;;;;;;4972705;28;20275;-75
2021/07/10 05:09:54;;;;;;;0.40;0.40;;;18.30;99.90;;;;;;4972885;28;20256;-75
2021/07/10 05:12:22;;;;;;;0.40;0.40;;;18.70;99.90;;;;;;4972893;28;20268;-75
2021/07/10 05:14:50;;;;;;;0.50;0.50;;;18.30;99.90;;;;;;4973004;28;20274;-75
2021/07/10 05:17:19;;;;;;;0.40;0.40;;;18.30;99.90;;;;;;4972615;28;20204;-75
2021/07/10 05:19:47;;;;;;;0.30;0.30;;;18.40;99.90;;;;;;4973597;28;20209;-75
2021/07/10 05:22:15;;;;;;;0.40;0.40;;;18.60;99.90;;;;;;4973228;28;20260;-74
2021/07/10 05:24:45;;;;;;;0.30;0.30;;;18.60;99.90;;;;;;4973440;28;20208;-74
2021/07/10 05:27:13;;;;;;;0.40;0.40;;;18.80;99.90;;;;;;4976084;28;20224;-75
2021/07/10 05:29:41;;;;;;;0.40;0.40;;;18.90;99.90;;;;;;4976648;28;20666;-75
2021/07/10 05:32:09;;;;;;;0.30;0.30;;;19.00;99.90;;;;;;4976848;28;20621;-75
2021/07/10 05:34:37;;;;;;;0.40;0.40;;;19.00;99.90;;;;;;4976579;28;20228;-74
2021/07/10 05:37:06;;;;;;;0.40;0.40;;;19.00;99.90;;;;;;4976214;28;20201;-75
2021/07/10 05:39:34;;;;;;;0.30;0.30;;;19.10;99.90;;;;;;4976718;28;20254;-75
2021/07/10 05:42:03;;;;;;;0.30;0.30;;;19.20;99.90;;;;;;4976288;28;20209;-75
2021/07/10 05:44:31;;;;;;;0.30;0.30;;;19.30;99.90;;;;;;4976347;28;20224;-75
2021/07/10 05:47:00;;;;;;;0.30;0.30;;;19.30;99.90;;;;;;4976175;28;20250;-75
2021/07/10 05:49:28;;;;;;;0.40;0.40;;;19.20;99.90;;;;;;4976365;28;20216;-76
2021/07/10 05:51:56;;;;;;;0.38;0.38;;;19.30;99.90;;;;;;4976402;28;20256;-75
2021/07/10 05:54:23;;;;;;;0.40;0.40;;;19.20;99.90;;;;;;4976204;28;20702;-75
2021/07/10 05:56:52;;;;;;;0.30;0.30;;;19.30;99.90;;;;;;4976263;28;20256;-75
2021/07/10 05:59:21;;;;;;;0.30;0.30;;;19.40;99.90;;;;;;4976204;28;20213;-75
2021/07/10 06:01:49;;;;;;;0.30;0.30;;;19.50;99.90;;;;;;4975991;28;20268;-75
2021/07/10 06:04:17;;;;;;;0.40;0.40;;;19.50;99.90;;;;;;4975212;28;20224;-75
2021/07/10 06:06:45;;;;;;;0.40;0.40;;;19.50;99.90;;;;;;4976377;28;20736;-74
2021/07/10 06:09:13;;;;;;;0.30;0.30;;;19.60;99.90;;;;;;4976496;28;20213;-75
2021/07/10 06:11:40;;;;;;;0.30;0.30;;;19.60;99.90;;;;;;4976017;28;20204;-75
2021/07/10 06:14:09;;;;;;;0.30;0.30;;;19.50;99.90;;;;;;4975827;28;20739;-75
2021/07/10 06:16:38;;;;;;;0.40;0.40;;;19.60;99.90;;;;;;4975925;28;20236;-75
2021/07/10 06:19:06;;;;;;;0.40;0.40;;;19.70;99.90;;;;;;4976207;28;20260;-75
2021/07/10 06:21:34;;;;;;;0.40;0.40;;;19.60;99.90;;;;;;4975979;28;20682;-75
2021/07/10 06:24:01;;;;;;;0.30;0.30;;;19.80;99.90;;;;;;4976777;28;20224;-75
2021/07/10 06:26:29;;;;;;;0.30;0.30;;;20.00;99.90;;;;;;4975879;28;20279;-75
2021/07/10 06:28:57;;;;;;;0.40;0.40;;;19.90;99.90;;;;;;4976325;28;20237;-76
2021/07/10 06:31:25;;;;;;;0.30;0.30;;;20.10;99.90;;;;;;4976564;28;20209;-75
2021/07/10 06:33:59;;;;;;;0.30;0.30;;;19.90;99.90;;;;;;4976611;28;20728;-75
2021/07/10 06:36:28;;;;;;;0.38;0.38;;;20.10;99.90;;;;;;4975276;28;20281;-75
2021/07/10 06:38:56;;;;;;;0.30;0.30;;;20.00;99.90;;;;;;4976841;28;20209;-75
2021/07/10 06:41:23;;;;;;;0.30;0.30;;;19.90;99.90;;;;;;4977195;28;20736;-75
2021/07/10 06:43:52;;;;;;;0.30;0.30;;;20.00;99.90;;;;;;4976187;28;20252;-75
2021/07/10 06:46:20;;;;;;;0.40;0.40;;;19.90;99.90;;;;;;4975566;28;20737;-75
2021/07/10 06:48:48;;;;;;;0.40;0.40;;;19.90;99.90;;;;;;4975498;28;20256;-74
2021/07/10 06:51:17;;;;;;;0.30;0.30;;;19.80;99.90;;;;;;4975320;28;20256;-75
2021/07/10 06:53:46;;;;;;;0.30;0.30;;;19.80;99.90;;;;;;4975559;28;20232;-75
2021/07/10 06:56:14;;;;;;;0.40;0.40;;;19.70;99.90;;;;;;4975057;28;20661;-75
2021/07/10 06:58:41;;;;;;;0.30;0.30;;;19.80;99.90;;;;;;4975801;28;20255;-72
2021/07/10 07:01:09;;;;;;;0.40;0.40;;;19.70;99.90;;;;;;4975866;28;20201;-71
2021/07/10 07:03:37;;;;;;;0.30;0.30;;;19.70;99.90;;;;;;4975253;28;20717;-72
2021/07/10 07:06:05;;;;;;;0.30;0.30;;;19.80;99.90;;;;;;4975463;28;20244;-72
2021/07/10 07:08:34;;;;;;;0.30;0.30;;;19.80;99.90;;;;;;4975580;28;20232;-72
2021/07/10 07:11:02;;;;;;;0.40;0.40;;;19.90;99.90;;;;;;4975324;28;20607;-71
2021/07/10 07:13:30;;;;;;;0.30;0.30;;;20.00;99.90;;;;;;4975029;28;20284;-72
2021/07/10 07:15:58;;;;;;;0.30;0.30;;;20.10;99.90;;;;;;4975608;28;20200;-72
2021/07/10 07:18:26;;;;;;;0.40;0.40;;;20.20;99.90;;;;;;4974963;28;20201;-72
2021/07/10 07:21:05;;;;;;;0.40;0.40;;;20.30;99.90;;;;;;4975767;28;20189;-73
2021/07/10 07:23:35;;;;;;;0.30;0.30;;;20.40;99.90;;;;;;4975163;28;20631;-73
2021/07/10 07:26:03;;;;;;;0.40;0.40;;;20.50;99.90;;;;;;4975216;28;20204;-72
2021/07/10 07:28:31;;;;;;;0.30;0.30;;;20.60;99.90;;;;;;4975350;28;20224;-72
2021/07/10 07:30:58;;;;;;;0.30;0.30;;;20.70;99.90;;;;;;4975341;28;20658;-71
2021/07/10 07:33:28;;;;;;;0.30;0.30;;;20.80;99.90;;;;;;4974973;28;20228;-71
2021/07/10 07:36:00;;;;;;;0.40;0.40;;;20.90;99.90;;;;;;4975610;28;20189;-72
2021/07/10 07:38:28;;;;;;;0.30;0.30;;;20.90;99.90;;;;;;4975209;28;20248;-72
2021/07/10 07:40:59;;;;;;;0.30;0.30;;;20.90;99.90;;;;;;4974970;28;20648;-72
2021/07/10 07:43:26;;;;;;;0.30;0.30;;;20.70;99.90;;;;;;4974709;28;20229;-72
2021/07/10 07:45:54;;;;;;;0.38;0.38;;;20.80;99.90;;;;;;4974784;28;20276;-72
2021/07/10 07:48:23;;;;;;;0.30;0.30;;;20.80;99.90;;;;;;4973775;28;20221;-73
2021/07/10 07:50:52;;;;;;;0.30;0.30;;;20.80;99.90;;;;;;4974831;28;20204;-73
2021/07/10 07:53:19;;;;;;;0.30;0.30;;;21.00;99.90;;;;;;4974397;28;20702;-72
2021/07/10 07:55:48;;;;;;;0.30;0.30;;;21.20;99.90;;;;;;4974473;28;20238;-72
2021/07/10 07:58:17;;;;;;;0.40;0.40;;;21.40;99.90;;;;;;4974482;28;20201;-72
2021/07/10 08:00:45;;;;;;;0.20;0.20;;;21.50;99.90;;;;;;4974559;28;20565;-72
2021/07/10 08:03:13;;;;;;;0.30;0.30;;;21.60;99.90;;;;;;4974425;28;20228;-72
2021/07/10 08:05:41;;;;;;;0.20;0.20;;;21.70;99.90;;;;;;4974181;28;20211;-73
2021/07/10 08:08:09;;;;;;;0.30;0.30;;;21.60;99.90;;;;;;4974324;28;20659;-74
2021/07/10 08:10:37;;;;;;;0.30;0.30;;;21.70;99.90;;;;;;4969061;28;20666;-74
2021/07/10 08:13:04;;;;;;;0.30;0.30;;;21.60;99.90;;;;;;4972984;28;20228;-72
2021/07/10 08:15:35;;;;;;;0.30;0.30;;;21.70;99.90;;;;;;4970560;28;20201;-73
2021/07/10 08:18:03;;;;;;;0.20;0.20;;;21.70;99.90;;;;;;4972660;28;20193;-73
2021/07/10 08:20:32;;;;;;;0.30;0.30;;;21.70;99.90;;;;;;4971270;28;20284;-72
2021/07/10 08:23:00;;;;;;;0.20;0.20;;;21.70;99.90;;;;;;4971643;28;20221;-73
2021/07/10 08:25:28;;;;;;;0.20;0.20;;;21.70;99.90;;;;;;4973653;28;20205;-74
2021/07/10 08:27:57;;;;;;;0.30;0.30;;;21.80;99.90;;;;;;4974189;28;20272;-73
2021/07/10 08:30:26;;;;;;;0.20;0.20;;;21.80;99.90;;;;;;4973457;28;20208;-73
2021/07/10 08:32:55;;;;;;;0.20;0.20;;;21.90;99.90;;;;;;4974506;28;20709;-77
2021/07/10 08:35:24;;;;;;;0.30;0.30;;;21.90;99.90;;;;;;4973848;28;20611;-72
2021/07/10 08:37:52;;;;;;;0.30;0.30;;;21.70;99.90;;;;;;4973953;28;20252;-73
2021/07/10 08:40:22;;;;;;;0.20;0.20;;;21.80;99.90;;;;;;4974073;28;20583;-72
2021/07/10 08:42:50;;;;;;;0.30;0.30;;;21.90;99.90;;;;;;4974358;28;20224;-74
2021/07/10 08:45:18;;;;;;;0.20;0.20;;;22.00;99.90;;;;;;4974236;28;20209;-74
2021/07/10 08:47:46;;;;;;;0.30;0.30;;;22.10;99.90;;;;;;4973550;28;20216;-75
2021/07/10 08:50:17;;;;;;;0.30;0.30;;;22.10;99.90;;;;;;4974182;28;20232;-75
2021/07/10 08:52:50;;;;;;;0.30;0.30;;;22.10;99.90;;;;;;4973976;28;20224;-74
2021/07/10 08:55:18;;;;;;;0.20;0.20;;;22.10;99.90;;;;;;4973667;28;20240;-74
2021/07/10 08:57:46;;;;;;;0.30;0.30;;;22.20;99.90;;;;;;4973841;28;20204;-74
2021/07/10 09:00:16;;;;;;;0.30;0.30;;;22.30;99.90;;;;;;4973492;28;20279;-74
2021/07/10 09:02:46;;;;;;;0.20;0.20;;;22.40;99.90;;;;;;4973438;28;20224;-74
2021/07/10 09:05:18;;;;;;;0.20;0.20;;;22.50;99.90;;;;;;4974278;28;20224;-74
2021/07/10 09:08:20;;;;;;;0.30;0.30;;;22.80;99.90;;;;;;4974216;28;20216;-73
2021/07/10 09:10:58;;;;;;;0.20;0.20;;;22.90;99.90;;;;;;4974987;28;20259;-75
2021/07/10 09:13:34;;;;;;;0.20;0.20;;;22.80;99.90;;;;;;4976332;28;20267;-72
2021/07/10 09:16:07;;;;;;;0.20;0.20;;;22.60;99.90;;;;;;4976696;28;20224;-73
2021/07/10 09:18:43;;;;;;;0.30;0.30;;;22.60;99.90;;;;;;4975486;28;20209;-74
2021/07/10 09:21:14;;;;;;;0.20;0.20;;;22.80;99.90;;;;;;4977578;28;20209;-79
2021/07/10 09:23:45;;;;;;;0.20;0.20;;;22.90;99.90;;;;;;4976946;28;20273;-79
2021/07/10 09:26:16;;;;;;;0.20;0.20;;;23.00;99.90;;;;;;4976338;28;20588;-75
2021/07/10 09:28:55;;;;;;;0.20;0.20;;;23.20;99.90;;;;;;4977797;28;20231;-74
2021/07/10 09:31:25;;;;;;;0.20;0.20;;;23.20;99.90;;;;;;4975279;28;20624;-76
2021/07/10 09:33:58;;;;;;;0.20;0.20;;;23.40;99.90;;;;;;4973085;28;20224;-75
2021/07/10 09:36:28;;;;;;;0.20;0.20;;;23.50;99.90;;;;;;4972271;28;20212;-75
2021/07/10 09:38:56;;;;;;;0.20;0.20;;;23.40;99.90;;;;;;4973544;28;20205;-75
2021/07/10 09:41:27;;;;;;;0.20;0.20;;;23.60;99.90;;;;;;4972634;28;20209;-74
2021/07/10 09:44:05;;;;;;;0.30;0.30;;;23.40;99.60;;;;;;4973108;28;20268;-75
2021/07/10 09:46:33;;;;;;;0.20;0.20;;;23.40;99.70;;;;;;4974328;28;20208;-76
2021/07/10 09:49:27;;;;;;;0.20;0.20;;;23.50;99.90;;;;;;4974972;28;20232;-75
2021/07/10 09:52:05;;;;;;;0.20;0.20;;;23.80;99.90;;;;;;4975767;28;20204;-75
2021/07/10 09:54:38;;;;;;;0.20;0.20;;;23.60;97.40;;;;;;4975489;28;20579;-75
2021/07/10 09:57:09;;;;;;;0.20;0.20;;;23.60;97.70;;;;;;4975006;28;20547;-75
2021/07/10 09:59:41;;;;;;;0.20;0.20;;;23.60;98.50;;;;;;4974559;28;20209;-75
2021/07/10 10:02:20;;;;;;;0.20;0.20;;;23.50;98.40;;;;;;4973318;28;20209;-75
2021/07/10 10:04:49;;;;;;;0.20;0.20;;;23.40;97.20;;;;;;4973162;28;20207;-75
2021/07/10 10:07:21;;;;;;;0.20;0.20;;;23.40;97.00;;;;;;4972875;28;20209;-75
2021/07/10 10:09:55;;;;;;;0.20;0.20;;;23.50;97.90;;;;;;4973026;28;20272;-75
2021/07/10 10:12:23;;;;;;;0.20;0.20;;;23.50;99.90;;;;;;4976300;28;20205;-75
2021/07/10 10:14:52;;;;;;;0.20;0.20;;;23.50;98.10;;;;;;4977355;28;20255;-75
2021/07/10 10:17:22;;;;;;;0.20;0.20;;;23.60;97.70;;;;;;4976360;28;20208;-74
2021/07/10 10:19:50;;;;;;;0.20;0.20;;;23.80;97.50;;;;;;4976428;28;20204;-75
2021/07/10 10:22:20;;;;;;;0.20;0.20;;;23.70;99.90;;;;;;4975988;28;20208;-75
2021/07/10 10:24:51;;;;;;;0.20;0.20;;;23.80;96.20;;;;;;4975883;28;20662;-75
2021/07/10 10:27:19;;;;;;;0.20;0.20;;;24.00;97.00;;;;;;4975829;28;20673;-75
2021/07/10 10:29:53;;;;;;;0.20;0.20;;;24.00;95.90;;;;;;4976147;28;20271;-74
2021/07/10 10:32:21;;;;;;;0.20;0.20;;;24.10;99.90;;;;;;4975988;28;20205;-74
2021/07/10 10:34:51;;;;;;;0.20;0.20;;;24.20;96.50;;;;;;4975737;28;20666;-75
2021/07/10 10:37:20;;;;;;;0.20;0.20;;;24.30;95.50;;;;;;4975713;28;20662;-75
2021/07/10 10:39:48;;;;;;;0.20;0.20;;;24.20;95.40;;;;;;4975917;28;20490;-75
2021/07/10 10:42:23;;;;;;;0.20;0.20;;;24.30;96.50;;;;;;4975888;28;20247;-75
2021/07/10 10:45:00;;;;;;;0.20;0.20;;;24.50;95.70;;;;;;4975603;28;20268;-75
2021/07/10 10:47:40;;;;;;;0.20;0.20;;;24.60;94.00;;;;;;4975438;28;20204;-74
2021/07/10 10:50:17;;;;;;;0.20;0.20;;;25.00;94.80;;;;;;4975236;28;20686;-74
2021/07/10 10:52:48;;;;;;;0.20;0.20;;;25.10;94.30;;;;;;4975678;28;20649;-75
2021/07/10 10:55:19;;;;;;;0.20;0.20;;;25.00;93.20;;;;;;4975469;28;20208;-75
2021/07/10 10:57:50;;;;;;;0.17;0.17;;;25.10;93.20;;;;;;4975646;28;20205;-75
2021/07/10 11:00:33;;;;;;;0.20;0.20;;;25.10;93.40;;;;;;4975708;28;20205;-76
2021/07/10 11:03:10;;;;;;;0.20;0.20;;;24.90;91.50;;;;;;4975354;28;20228;-74
2021/07/10 11:05:43;;;;;;;0.20;0.20;;;24.80;92.80;;;;;;4975086;28;20208;-76
2021/07/10 11:08:53;;;;;;;0.20;0.20;;;24.80;93.40;;;;;;4975232;28;20216;-75
2021/07/10 11:11:29;;;;;;;0.20;0.20;;;25.00;92.40;;;;;;4965757;28;20264;-75
2021/07/10 11:14:28;;;;;;;0.20;0.20;;;25.20;91.60;;;;;;4975202;28;20240;-75
2021/07/10 11:17:09;;;;;;;0.20;0.20;;;25.30;91.20;;;;;;4975001;28;20271;-75
2021/07/10 11:19:53;;;;;;;0.20;0.20;;;25.50;91.90;;;;;;4974937;28;20200;-75
2021/07/10 11:22:55;;;;;;;0.10;0.10;;;25.50;97.00;;;;;;4974884;28;20204;-75
2021/07/10 11:26:02;;;;;;;0.20;0.20;;;25.50;92.40;;;;;;4974535;28;20204;-75
2021/07/10 11:28:48;;;;;;;0.20;0.20;;;25.70;92.70;;;;;;4975046;28;20258;-75
2021/07/10 11:31:20;;;;;;;0.20;0.20;;;25.60;92.30;;;;;;4972599;28;20204;-75
2021/07/10 11:34:09;;;;;;;0.20;0.20;;;25.70;92.10;;;;;;4974970;28;20250;-75
2021/07/10 11:36:56;;;;;;;0.15;0.15;;;25.80;90.60;;;;;;4974671;28;20559;-75
2021/07/10 11:39:49;;;;;;;0.20;0.20;;;26.10;90.30;;;;;;4974354;28;20204;-75
2021/07/10 11:42:46;;;;;;;0.20;0.20;;;25.80;87.40;;;;;;4960946;28;20288;-75
2021/07/10 11:45:34;;;;;;;0.20;0.20;;;25.70;88.50;;;;;;4973539;28;20264;-75
2021/07/10 11:48:19;;;;;;;0.10;0.10;;;25.80;89.80;;;;;;4972987;28;20568;-75
2021/07/10 11:50:57;;;;;;;0.10;0.10;;;25.60;89.40;;;;;;4973069;28;20225;-75
2021/07/10 11:53:25;;;;;;;0.20;0.20;;;25.80;91.20;;;;;;4962257;28;20220;-75
2021/07/10 11:55:53;;;;;;;0.20;0.20;;;25.80;90.80;;;;;;4974150;28;20292;-75
2021/07/10 11:58:21;;;;;;;0.20;0.20;;;25.90;89.00;;;;;;4974154;28;20200;-75
2021/07/10 12:00:50;;;;;;;0.20;0.20;;;25.90;88.40;;;;;;4974282;28;20260;-75
2021/07/10 12:03:20;;;;;;;0.17;0.17;;;25.90;89.30;;;;;;4974256;28;20235;-75
2021/07/10 12:05:49;;;;;;;0.20;0.20;;;25.70;89.20;;;;;;4973971;28;20256;-75
2021/07/10 12:08:18;;;;;;;0.13;0.13;;;25.70;90.20;;;;;;4973974;28;20209;-75
2021/07/10 12:10:48;;;;;;;0.20;0.20;;;25.70;89.90;;;;;;4973985;28;20231;-75
2021/07/10 12:13:18;;;;;;;0.20;0.20;;;25.80;91.40;;;;;;4974585;28;20291;-75
2021/07/10 12:15:52;;;;;;;0.20;0.20;;;25.80;90.60;;;;;;4975071;28;20696;-74
2021/07/10 12:18:22;;;;;;;0.20;0.20;;;26.30;89.20;;;;;;4974182;28;20256;-75
2021/07/10 12:20:52;;;;;;;0.20;0.20;;;26.30;89.80;;;;;;4974037;28;20219;-75
2021/07/10 12:23:22;;;;;;;0.20;0.20;;;26.80;86.80;;;;;;4973925;28;20221;-75
2021/07/10 12:25:55;;;;;;;0.20;0.20;;;27.30;85.50;;;;;;4973540;28;20753;-75
2021/07/10 12:28:32;;;;;;;0.20;0.20;;;27.70;84.70;;;;;;4973782;28;20200;-75
2021/07/10 12:31:02;;;;;;;0.20;0.20;;;27.90;81.00;;;;;;4973765;28;20266;-75
2021/07/10 12:33:38;;;;;;;0.20;0.20;;;28.50;81.20;;;;;;4973586;28;20235;-75
2021/07/10 12:36:28;;;;;;;0.20;0.20;;;28.70;79.70;;;;;;4973083;28;20283;-75
2021/07/10 12:39:08;;;;;;;0.10;0.10;;;29.20;79.80;;;;;;4968350;28;20264;-75
2021/07/10 12:41:40;;;;;;;0.10;0.10;;;29.40;75.60;;;;;;4973558;28;20232;-75
2021/07/10 12:44:22;;;;;;;0.10;0.10;;;30.10;73.60;;;;;;4973371;28;20225;-75
2021/07/10 12:46:59;;;;;;;0.10;0.10;;;30.50;69.00;;;;;;4973777;28;20582;-75
2021/07/10 12:49:29;;;;;;;0.10;0.10;;;30.50;67.70;;;;;;4973595;28;20210;-73
2021/07/10 12:51:58;;;;;;;0.10;0.10;;;29.90;67.40;;;;;;4973469;28;20208;-73
2021/07/10 12:54:38;;;;;;;0.10;0.10;;;29.50;70.80;;;;;;4973498;28;20224;-73
2021/07/10 12:57:26;;;;;;;0.10;0.10;;;28.90;70.40;;;;;;4971572;28;20219;-74
2021/07/10 12:59:56;;;;;;;0.20;0.20;;;28.30;71.40;;;;;;4973762;28;20200;-73
2021/07/10 13:02:32;;;;;;;0.13;0.13;;;28.70;83.50;;;;;;4973402;28;20270;-74
2021/07/10 13:05:03;;;;;;;0.10;0.10;;;28.90;71.20;;;;;;4973408;28;20204;-74